Las Vegas, NV

11:40 AM PDT on March 27, 2017 (GMT -0700)
McCarran International | | Change Station
Active Advisory: Wind Advisory

Elev 2178 ft 36.08 °N, 115.15 °W | Updated 44 minutes ago

Mostly Cloudy
Mostly Cloudy
68 °F
Feels Like 68 °F
N
24
Wind Variable Wind from West
Gusts 30 mph

Today
High -- | Low -- °F
--% Chance of Precip.
Yesterday
High -- | Low -- °F
Precip. -- in
Pressure 29.81 in
Visibility 10.0 miles
Clouds Scattered Clouds 7000 ft
Mostly Cloudy 10000 ft
Dew Point 33 °F
Humidity 27%
Rainfall 0.00 in
Snow Depth Not available.
6:33 AM 6:58 PM
Waning Crescent, 0% visible
METAR KLAS 271756Z 28021G26KT 10SM SCT070 BKN100 20/01 A2985 RMK AO2 PK WND 34026/1751 SLP092 VIRGA DSNT NW T02000006 10200 20144 51016
Pressure 29.81 in
Visibility 10.0 miles
Clouds Scattered Clouds 7000 ft
Mostly Cloudy 10000 ft
Dew Point 33 °F
Humidity 27%
Rainfall 0.00 in
Snow Depth Not available.
6:33 AM 6:58 PM
Waning Crescent, 0% visible
METAR KLAS 271756Z 28021G26KT 10SM SCT070 BKN100 20/01 A2985 RMK AO2 PK WND 34026/1751 SLP092 VIRGA DSNT NW T02000006 10200 20144 51016

Get Your Daily Forecast Email!

Thanks for signing up!

Be on the lookout for a verification email in your inbox.

You'll start receiving severe weather alerts in your inbox..

×

10-Day Weather Forecast

Almanac

Astronomy

Mar. 27, 2017 Rise Set
Actual Time
Civil Twilight
Nautical Twilight
Astronomical Twilight
Moon
Length of Visible Light
Length of Day
Tomorrow will be .
, % of the Moon is Illuminated

Today's Extremes

State Highs State Lows

Community

WunderPhotos

Upload Photos

1,962,540 photos uploaded!

WunderBlog® & News

Nearby

Air Quality

  Air Quality AQ Index Pollutant
Not available.

Snow Depth

Station Depth Elevation

Earthquake Activity

City Distance Mag. Time & Date
Minimum magnitude displayed is 2.5.

Earthquake Activity

City Distance Mag. Time & Date
Minimum magnitude displayed is 2.5.

Coastal Water Temperatures

Place Temperature

Stations

Nearby Weather Stations

Station Location Temp. Windchill Dew Point Humidity Wind Precip. Elev Updated Type
                   

Watches & Warnings

Wind Advisory
Issued: 10:58 AM PDT Mar. 27, 2017 – National Weather Service

... Wind Advisory remains in effect until 11 am PDT Tuesday...

* timing... today through late Tuesday morning. The strongest winds
are expected this evening and overnight.

* Winds... north or northwest winds of 25 to 35 mph with gusts to
45 mph are expected.

* Impacts... strong winds may damage or displace unsecured
outdoor structures. Strong Crosswinds will make travel
difficult for high profile vehicles. Strong winds on area
lakes will make for dangerous boating conditions. Localized
blowing dust will result in pockets of low visibility.

Precautionary/preparedness actions...

A Wind Advisory means strong winds gusting over 40 mph can make
driving difficult... especially for high profile vehicles. Use
extra caution.